Time;durP1;ratioP1;P1;durP2;ratioP2;P2;SDS_P1;SDS_P2;PMS_P1;PMS_P2;Temp;Humidity;BMP_temperature;BMP_pressure;BME280_temperature;BME280_humidity;BME280_pressure;Samples;Min_cycle;Max_cycle;Signal;HPM_P1;HPM_P2
2022/01/06 12:57:06;;;;;;;;;20.00;18.00;;;;;-150.09;100.00;59807.75;5046408;28;46021;-89
2022/01/06 12:59:37;;;;;;;;;19.33;17.67;;;;;-150.09;100.00;59807.75;5010770;28;45835;-88
2022/01/06 13:02:11;;;;;;;;;18.67;15.67;;;;;-150.09;100.00;59807.75;4994434;28;45556;-90
2022/01/06 13:04:43;;;;;;;;;13.00;13.00;;;;;-150.09;100.00;59807.75;5012704;28;45581;-89
2022/01/06 13:07:10;;;;;;;;;21.00;15.33;;;;;-150.09;100.00;59807.75;5011741;28;45341;-90
2022/01/06 13:09:35;;;;;;;;;12.67;12.33;;;;;-150.09;100.00;59807.75;5024618;28;45510;-89
2022/01/06 13:12:03;;;;;;;;;15.33;14.00;;;;;-150.09;100.00;59807.75;4996116;28;45351;-90
2022/01/06 13:14:30;;;;;;;;;12.00;12.00;;;;;-150.09;100.00;59807.75;4989647;28;45461;-91
2022/01/06 13:17:14;;;;;;;;;19.33;14.00;;;;;-150.09;100.00;59807.75;5027203;28;45782;-88
2022/01/06 13:19:53;;;;;;;;;17.00;11.25;;;;;-150.09;100.00;59807.75;5021035;28;45383;-87
2022/01/06 13:25:21;;;;;;;;;13.00;13.00;;;;;-150.09;100.00;59807.75;5034429;28;45456;-88
2022/01/06 13:28:00;;;;;;;;;10.50;8.25;;;;;-150.09;100.00;59807.75;5027888;28;47274;-89
2022/01/06 13:30:46;;;;;;;;;13.00;12.00;;;;;-150.09;100.00;59807.75;5015728;28;45727;-89
2022/01/06 13:33:14;;;;;;;;;11.00;10.25;;;;;-150.09;100.00;59807.75;5012180;28;45714;-88
2022/01/06 13:36:09;;;;;;;;;10.25;8.00;;;;;-150.09;100.00;59807.75;5015716;28;45538;-88
2022/01/06 13:38:36;;;;;;;;;15.25;12.25;;;;;-150.09;100.00;59807.75;5017601;28;45786;-87
2022/01/06 13:41:06;;;;;;;;;10.25;10.25;;;;;-150.09;100.00;59807.75;5025461;28;45619;-88
2022/01/06 13:43:33;;;;;;;;;10.25;10.25;;;;;-150.09;100.00;59807.75;5021821;28;45629;-88
2022/01/06 13:46:21;;;;;;;;;14.25;11.00;;;;;-150.09;100.00;59807.75;5000630;28;45545;-88
2022/01/06 13:51:04;;;;;;;;;9.75;9.75;;;;;-150.09;100.00;59807.75;5025419;28;46499;-87
2022/01/06 13:51:32;;;;;;;;;17.75;11.75;;;;;-150.09;100.00;59807.75;5013191;28;45513;-89
2022/01/06 13:54:06;;;;;;;;;11.75;10.25;;;;;-150.09;100.00;59807.75;5007318;28;45441;-89
2022/01/06 13:56:32;;;;;;;;;12.75;8.50;;;;;-150.09;100.00;59807.75;5026890;28;45590;-89
2022/01/06 13:59:09;;;;;;;;;11.00;9.25;;;;;-150.09;100.00;59807.75;4997509;28;47805;-89
2022/01/06 14:01:37;;;;;;;;;10.25;9.50;;;;;-150.09;100.00;59807.75;4993729;28;45486;-86
2022/01/06 14:04:04;;;;;;;;;10.75;8.25;;;;;-150.09;100.00;59807.75;4991671;28;45492;-88
2022/01/06 14:06:29;;;;;;;;;12.50;8.25;;;;;-150.09;100.00;59807.75;4992011;28;45692;-89
2022/01/06 14:08:55;;;;;;;;;11.00;10.00;;;;;-150.09;100.00;59807.75;5001757;28;46896;-90
2022/01/06 14:11:20;;;;;;;;;9.75;7.75;;;;;-150.09;100.00;59807.75;5009581;28;46242;-91
2022/01/06 14:13:47;;;;;;;;;10.75;10.00;;;;;-150.09;100.00;59807.75;4998418;28;45306;-90
2022/01/06 14:16:13;;;;;;;;;10.25;8.00;;;;;-150.09;100.00;59807.75;4995733;28;45563;-89
2022/01/06 14:18:38;;;;;;;;;11.50;9.75;;;;;-150.09;100.00;59807.75;4995172;28;46363;-89
2022/01/06 14:21:04;;;;;;;;;8.25;7.00;;;;;-150.09;100.00;59807.75;4997174;28;45568;-90
2022/01/06 14:23:32;;;;;;;;;12.00;9.00;;;;;-150.09;100.00;59807.75;4982593;28;45491;-88
2022/01/06 14:25:58;;;;;;;;;8.50;8.50;;;;;-150.09;100.00;59807.75;4989423;28;45669;-88
2022/01/06 14:28:23;;;;;;;;;9.75;8.25;;;;;-150.09;100.00;59807.75;5009639;28;46055;-88
2022/01/06 14:30:49;;;;;;;;;8.50;8.50;;;;;-150.09;100.00;59807.75;4997768;28;45626;-89
2022/01/06 14:33:14;;;;;;;;;7.50;7.00;;;;;-150.09;100.00;59807.75;5014138;28;45497;-89
2022/01/06 14:35:40;;;;;;;;;5.50;5.50;;;;;-150.09;100.00;59807.75;4975263;28;45627;-88
2022/01/06 14:38:05;;;;;;;;;9.00;7.25;;;;;-150.09;100.00;59807.75;4990264;28;46312;-88
2022/01/06 14:40:31;;;;;;;;;7.75;7.75;;;;;-150.09;100.00;59807.75;4988785;28;45858;-87
2022/01/06 14:42:58;;;;;;;;;6.50;6.00;;;;;-150.09;100.00;59807.75;4990440;28;45591;-88
2022/01/06 14:45:26;;;;;;;;;6.00;6.00;;;;;-150.09;100.00;59807.75;4987570;28;45420;-91
2022/01/06 14:47:51;;;;;;;;;5.75;4.75;;;;;-150.09;100.00;59807.75;4972383;28;47100;-88
2022/01/06 14:50:17;;;;;;;;;7.75;7.00;;;;;-150.09;100.00;59807.75;5008874;28;45574;-88
2022/01/06 14:52:44;;;;;;;;;7.50;7.50;;;;;-150.09;100.00;59807.75;4988108;28;45752;-88
2022/01/06 14:55:10;;;;;;;;;8.50;5.50;;;;;-150.09;100.00;59807.75;4986309;28;45624;-88
2022/01/06 14:57:36;;;;;;;;;6.00;6.00;;;;;-150.09;100.00;59807.75;5023943;28;46044;-87
2022/01/06 15:00:02;;;;;;;;;8.00;8.00;;;;;-150.09;100.00;59807.75;4992643;28;45552;-89
2022/01/06 15:02:27;;;;;;;;;6.75;6.25;;;;;-150.09;100.00;59807.75;4991778;28;45607;-88
2022/01/06 15:04:53;;;;;;;;;8.50;7.50;;;;;-150.09;100.00;59807.75;5009082;28;45496;-88
2022/01/06 15:07:18;;;;;;;;;8.50;6.25;;;;;-150.09;100.00;59807.75;4983805;28;47275;-88
2022/01/06 15:09:44;;;;;;;;;6.75;6.00;;;;;-150.09;100.00;59807.75;4974432;28;45540;-88
2022/01/06 15:12:09;;;;;;;;;9.25;6.25;;;;;-150.09;100.00;59807.75;4992887;28;45605;-89
2022/01/06 15:14:35;;;;;;;;;5.00;5.00;;;;;-150.09;100.00;59807.75;4978670;28;45424;-88
2022/01/06 15:17:00;;;;;;;;;7.25;5.00;;;;;-150.09;100.00;59807.75;4989819;28;54169;-90
2022/01/06 15:19:26;;;;;;;;;5.00;4.00;;;;;-150.09;100.00;59807.75;4986604;28;45511;-89
2022/01/06 15:21:51;;;;;;;;;6.50;4.75;;;;;-150.09;100.00;59807.75;4990110;28;46999;-89
2022/01/06 15:24:16;;;;;;;;;5.00;5.00;;;;;-150.09;100.00;59807.75;4975060;28;45601;-89
2022/01/06 15:26:42;;;;;;;;;6.50;6.50;;;;;-150.09;100.00;59807.75;4992891;28;46488;-89
2022/01/06 15:29:07;;;;;;;;;7.00;5.50;;;;;-150.09;100.00;59807.75;4976784;28;45864;-91
2022/01/06 15:31:33;;;;;;;;;6.00;5.00;;;;;-150.09;100.00;59807.75;4972701;28;45956;-90
2022/01/06 15:33:59;;;;;;;;;4.50;4.50;;;;;-150.09;100.00;59807.75;4985871;28;45586;-89
2022/01/06 15:36:24;;;;;;;;;6.20;3.60;;;;;-150.09;100.00;59807.75;4980194;28;48802;-89
2022/01/06 15:38:51;;;;;;;;;5.75;5.00;;;;;-150.09;100.00;59807.75;4974792;28;45893;-89
2022/01/06 15:41:19;;;;;;;;;4.60;3.60;;;;;-150.09;100.00;59807.75;4991468;28;45495;-90
2022/01/06 15:43:45;;;;;;;;;7.00;6.00;;;;;-150.09;100.00;59807.75;5006192;28;45551;-91
2022/01/06 15:46:11;;;;;;;;;3.80;3.80;;;;;-150.09;100.00;59807.75;4982913;28;47114;-91
2022/01/06 15:48:36;;;;;;;;;6.00;4.75;;;;;-150.09;100.00;59807.75;4982323;28;47682;-89
2022/01/06 15:51:02;;;;;;;;;5.50;5.00;;;;;-150.09;100.00;59807.75;5012599;28;46678;-89
2022/01/06 15:53:28;;;;;;;;;5.75;5.00;;;;;-150.09;100.00;59807.75;5014134;28;45569;-88
2022/01/06 15:55:53;;;;;;;;;8.00;3.00;;;;;-150.09;100.00;59807.75;4989567;28;45507;-88
2022/01/06 15:58:19;;;;;;;;;4.25;4.00;;;;;-150.09;100.00;59807.75;5003100;28;45698;-88
2022/01/06 16:06:15;;;;;;;;;4.00;4.00;;;;;-150.09;100.00;59807.75;4958917;28;45440;-89
2022/01/06 16:08:40;;;;;;;;;3.75;3.75;;;;;-150.09;100.00;59807.75;4960376;28;45444;-90
2022/01/06 16:11:06;;;;;;;;;4.75;4.75;;;;;-150.09;100.00;59807.75;4938444;28;45765;-89
2022/01/06 16:13:32;;;;;;;;;3.75;3.00;;;;;-150.09;100.00;59807.75;4974019;28;45474;-89
2022/01/06 16:15:58;;;;;;;;;3.20;2.60;;;;;-150.09;100.00;59807.75;4950280;28;46754;-92
2022/01/06 16:18:24;;;;;;;;;3.00;3.00;;;;;-150.09;100.00;59807.75;4952081;28;45426;-91
2022/01/06 16:20:52;;;;;;;;;3.50;3.00;;;;;-150.09;100.00;59807.75;4967449;28;45341;-92
2022/01/06 16:23:21;;;;;;;;;3.50;3.50;;;;;-150.09;100.00;59807.75;4941924;28;45644;-95
2022/01/06 16:25:46;;;;;;;;;3.00;3.00;;;;;-150.09;100.00;59807.75;4941359;28;47482;-91
2022/01/06 16:28:12;;;;;;;;;3.75;2.00;;;;;-150.09;100.00;59807.75;4951642;28;45486;-90
2022/01/06 16:30:45;;;;;;;;;3.75;3.75;;;;;-150.09;100.00;59807.75;4981508;28;45522;-90
2022/01/06 16:33:11;;;;;;;;;6.00;4.25;;;;;-150.09;100.00;59807.75;4939248;28;45520;-90
2022/01/06 16:35:36;;;;;;;;;5.00;3.00;;;;;-150.09;100.00;59807.75;4942001;28;46510;-90
2022/01/06 16:38:02;;;;;;;;;3.50;3.50;;;;;-150.09;100.00;59807.75;4941170;28;45534;-91
2022/01/06 16:40:28;;;;;;;;;7.25;3.25;;;;;-150.09;100.00;59807.75;4961463;28;45269;-92
2022/01/06 16:42:53;;;;;;;;;6.00;3.00;;;;;-150.09;100.00;59807.75;4980545;28;45413;-92
2022/01/06 16:45:19;;;;;;;;;7.25;5.25;;;;;-150.09;100.00;59807.75;4980605;28;47986;-93
2022/01/06 16:47:44;;;;;;;;;3.25;3.00;;;;;-150.09;100.00;59807.75;4979492;28;45226;-92
2022/01/06 16:50:11;;;;;;;;;3.25;3.25;;;;;-150.09;100.00;59807.75;4975763;28;47385;-92
2022/01/06 16:52:37;;;;;;;;;3.50;3.50;;;;;-150.09;100.00;59807.75;4989234;28;45465;-92
2022/01/06 16:55:06;;;;;;;;;6.25;3.50;;;;;-150.09;100.00;59807.75;4985964;28;46610;-90
2022/01/06 16:57:32;;;;;;;;;8.20;3.40;;;;;-150.09;100.00;59807.75;4976806;28;45524;-92
2022/01/06 16:59:57;;;;;;;;;4.25;4.25;;;;;-150.09;100.00;59807.75;4973749;28;47085;-93
2022/01/06 17:02:23;;;;;;;;;5.75;4.50;;;;;-150.09;100.00;59807.75;4997439;28;45548;-91
2022/01/06 17:04:50;;;;;;;;;4.50;4.50;;;;;-150.09;100.00;59807.75;4997245;28;47815;-91
2022/01/06 17:07:18;;;;;;;;;6.00;5.40;;;;;-150.09;100.00;59807.75;4977657;28;45466;-92
2022/01/06 17:09:44;;;;;;;;;4.20;3.80;;;;;-150.09;100.00;59807.75;4977563;28;45555;-92
2022/01/06 17:12:11;;;;;;;;;6.25;4.25;;;;;-150.09;100.00;59807.75;4996045;28;45334;-93
2022/01/06 17:14:36;;;;;;;;;4.00;4.00;;;;;-150.09;100.00;59807.75;4997580;28;47000;-92
2022/01/06 17:17:02;;;;;;;;;4.00;4.00;;;;;-150.09;100.00;59807.75;4978476;28;45651;-93
2022/01/06 17:19:28;;;;;;;;;4.20;3.40;;;;;-150.09;100.00;59807.75;4974994;28;45567;-94
2022/01/06 17:22:01;;;;;;;;;6.25;4.75;;;;;-150.09;100.00;59807.75;5008556;28;45533;-92
2022/01/06 17:24:35;;;;;;;;;6.50;4.75;;;;;-150.09;100.00;59807.75;4993476;28;46251;-92
2022/01/06 17:30:23;;;;;;;;;3.40;3.40;;;;;-150.09;100.00;59807.75;4986864;28;45472;-92
2022/01/06 17:32:56;;;;;;;;;4.00;4.00;;;;;-150.09;100.00;59807.75;4998939;28;45549;-91
2022/01/06 17:35:54;;;;;;;;;4.25;4.25;;;;;-150.09;100.00;59807.75;4979040;28;47658;-92
2022/01/06 17:38:30;;;;;;;;;7.80;4.80;;;;;-150.09;100.00;59807.75;4997721;28;45627;-94
2022/01/06 17:43:42;;;;;;;;;8.25;7.25;;;;;-150.09;100.00;59807.75;5013771;28;45774;-90
2022/01/06 17:46:08;;;;;;;;;13.00;11.75;;;;;-150.09;100.00;59807.75;5012838;28;45979;-91
2022/01/06 17:48:33;;;;;;;;;12.75;11.75;;;;;-150.09;100.00;59807.75;4994155;28;46044;-92
2022/01/06 17:51:01;;;;;;;;;13.50;13.25;;;;;-150.09;100.00;59807.75;4997042;28;45613;-92
2022/01/06 17:53:27;;;;;;;;;20.50;18.25;;;;;-150.09;100.00;59807.75;4980681;28;45580;-90
2022/01/06 17:55:53;;;;;;;;;16.00;16.00;;;;;-150.09;100.00;59807.75;4976156;28;47141;-90
2022/01/06 17:58:20;;;;;;;;;17.25;14.50;;;;;-150.09;100.00;59807.75;5012013;28;45839;-90
2022/01/06 18:00:45;;;;;;;;;16.75;14.50;;;;;-150.09;100.00;59807.75;4993674;28;46560;-89
2022/01/06 18:03:11;;;;;;;;;22.75;20.75;;;;;-150.09;100.00;59807.75;4981279;28;45694;-91
2022/01/06 18:05:41;;;;;;;;;25.50;18.25;;;;;-150.09;100.00;59807.75;4998989;28;45727;-92
2022/01/06 18:13:20;;;;;;;;;19.00;17.25;;;;;-150.09;100.00;59807.75;5004265;28;45967;-89
